Main page
METAR-TAF:

METAR-TAF

Airports :

Southeast Iowa Regional Airport

Burlington, Iowa, United States

latitude: 40-46-22N, longitude: 091-07-31W, elevation: 695 ft

Current weather observation

The report was made 28 minutes ago, at 12:53 UTC
Wind 7 mph from the South
Temperature 77°F
Humidity 79%
Pressure 30.21 in. Hg
Visibility: 10 miles
Clear sky

METAR: KBRL 211253Z AUTO 19006KT 10SM CLR 25/21 A3021 RMK AO2 SLP223 T02500211

Time: 08:21 (13:21 UTC)

Forecast

The report was made 2 hours and 1 minutes ago, at 11:20 UTC
Forecast valid from 21 at 12 UTC to 22 at 12 UTC
Wind 5 mph from variable directions
Visibility: 6 miles
Few clouds at a height of 7000 ft
From 21 at 1600 UTC
Wind 10 mph from the South/Southwest
Visibility: 6 miles
Scattered clouds at a height of 4500 ft
From 22 at 0200 UTC
Wind 8 mph from the South/Southwest
Visibility: 6 miles
Scattered clouds at a height of 10000 ft

TAF: KBRL 211120Z 2112/2212 VRB04KT P6SM FEW070 FM211600 21009KT P6SM SCT045 FM220200 20007KT P6SM SCT100

Weather observations and forecasts of more than 4000 airports (METAR and TAF reports).

The available stations are represented by yellow and red dots on the map.

Hover mouse over dot to see the name of the station.

Then click to see weather observations and forecasts.

To change the map : click on the green buttons with a black cross to zoom in, on the green button with a dash to zoom out, or on the green arrows for adjacent maps.


METAR-TAF: